LFML 281300Z AUTO 18013KT CAVOK 30/04 Q1020 NOSIG

ElémentsDécodage
LFML Station météo située sur l'aérodrome de MARSEILLE PROVENCE
281300Z émis le 28 du mois à 13h00 UTC
AUTO Bulletin édité par un automate
18013KT vent du 180°, 13 noeuds
CAVOK Ceiling And Visibility OK
- Visibilité de 10 Km ou plus
- Pas de nuage au-dessous de 1500m ou au-dessous de l'altitude minimale du secteur la plus élevée (si>1500m) et absence de CB
- pas de temps présent significatif
30/04 température 30°C, point de rosée 04°C
 soit une humidité relative de 19%
Q1020 la pression au niveau de la mer (QNH) est de 1020 hPa
NOSIG Pas de changement significatif prévu au cours des deux heures suivant l'heure de l'observation